Strona główna
METAR-TAF:

METAR-TAF

Lotnisko :

Plymouth, New Hampshire, Stany Zjednoczone

Szerokość geograficzna: 43-46-45N, Długość geograficzna: 071-45-13W, wysokość: 154 m

Aktualna obserwacja pogody

Raport powstał 22 minut temu, godzina 03:35 UTC
Cisza
Temperatura 6°C
Wilgotność 100%
Ciśnienie 1014 hPa
Widzialność: 16.1 km
Rozproszone chmury na wysokości 3300 ft
Zachmurzenie całkowite na wysokości 4900 ft

METAR: K1P1 040335Z AUTO 00000KT 10SM SCT033 OVC049 06/06 A2995 RMK AO2 T00630058

czas: 23:57 (03:57 UTC)


TAF: brakujący

Obserwacja i prognoza pogody dla ponad 4000 lotnisk (raport METAR i TAF).

Dostępne stacje oznaczono żółtymi i czerwonymi punktami na mapie.

Najedź kursorem aby zobaczyć nazwę stacji.

Kliknij aby zobaczyć obserwacje i prognozy pogody.

Aby zmienić mapę: kliknij na zielony przycisk z czarnym krzyżykiem, aby powiększyć; na zielony przycisk z myślnikiem, aby pomniejszyć; na zielone strzałki, aby przejść do map sąsiednich.


METAR-TAF: